createdAt,value
2022-08-26T00:01:56.989Z,99973.78
2022-08-26T00:06:59.800Z,99964.31
2022-08-26T00:12:05.450Z,99958.31
2022-08-26T00:17:08.723Z,99958.09
2022-08-26T00:22:12.033Z,99960.75
2022-08-26T00:27:16.192Z,99961.38
2022-08-26T00:32:20.342Z,99964.53
2022-08-26T00:37:23.086Z,99959.09
2022-08-26T00:42:29.115Z,99958.84
2022-08-26T00:47:35.575Z,99958.84
2022-08-26T00:52:41.430Z,99960.00
2022-08-26T00:57:50.304Z,99957.66
2022-08-26T01:02:55.560Z,99955.44
2022-08-26T01:07:58.478Z,99957.03
2022-08-26T01:13:09.956Z,99957.97
2022-08-26T01:18:15.299Z,99952.00
2022-08-26T01:23:19.570Z,99950.59
2022-08-26T01:28:29.443Z,99941.00
2022-08-26T01:33:42.056Z,99944.19
2022-08-26T01:38:46.704Z,99939.75
2022-08-26T01:43:53.254Z,99944.66
2022-08-26T01:48:59.088Z,99949.13
2022-08-26T01:54:03.628Z,99947.59
2022-08-26T01:59:12.828Z,99948.28
2022-08-26T02:04:22.130Z,99942.16
2022-08-26T02:09:26.893Z,99942.16
2022-08-26T02:14:34.209Z,99945.16
2022-08-26T02:19:42.588Z,99948.63
2022-08-26T02:24:50.397Z,99943.72
2022-08-26T02:29:56.531Z,99940.59
2022-08-26T02:34:59.349Z,99933.44
2022-08-26T02:40:05.225Z,99928.03
2022-08-26T02:45:09.462Z,99921.25
2022-08-26T02:50:12.507Z,99930.41
2022-08-26T02:55:17.123Z,99925.53
2022-08-26T03:00:20.657Z,99921.47
2022-08-26T03:05:24.769Z,99922.22
2022-08-26T03:10:31.491Z,99917.25
2022-08-26T03:15:35.749Z,99917.41
2022-08-26T03:20:40.402Z,99917.97
2022-08-26T03:25:50.218Z,99917.72
2022-08-26T03:30:53.424Z,99918.84
2022-08-26T03:35:56.235Z,99912.41
2022-08-26T03:41:01.045Z,99913.84
2022-08-26T03:46:05.998Z,99913.84
2022-08-26T03:51:13.799Z,99910.44
2022-08-26T03:56:22.568Z,99907.72
2022-08-26T04:01:25.403Z,99909.16
2022-08-26T04:06:31.080Z,99917.72
2022-08-26T04:11:39.323Z,99902.47
2022-08-26T04:16:43.661Z,99910.88
2022-08-26T04:21:47.354Z,99909.22
2022-08-26T04:26:52.489Z,99912.28
2022-08-26T04:31:56.463Z,99900.56
2022-08-26T04:37:00.139Z,99900.81
2022-08-26T04:42:04.438Z,99903.63
2022-08-26T04:47:07.352Z,99902.63
2022-08-26T04:52:10.125Z,99904.34
2022-08-26T04:57:14.542Z,99911.69
2022-08-26T05:02:18.326Z,99917.34
2022-08-26T05:07:21.775Z,99921.78
2022-08-26T05:12:27.802Z,99924.88
2022-08-26T05:17:31.555Z,99930.72
2022-08-26T05:22:34.268Z,99928.28
2022-08-26T05:27:38.599Z,99933.78
2022-08-26T05:32:41.971Z,99937.63
2022-08-26T05:37:45.153Z,99939.03
2022-08-26T05:42:49.373Z,99930.16
2022-08-26T05:47:52.099Z,99932.16
2022-08-26T05:52:54.838Z,99934.84
2022-08-26T05:57:59.359Z,99935.56
2022-08-26T06:03:05.721Z,99928.91
2022-08-26T06:08:13.975Z,99927.91
2022-08-26T06:13:20.369Z,99927.50
2022-08-26T06:18:27.331Z,99926.13
2022-08-26T06:23:49.005Z,99924.72
2022-08-26T06:28:53.216Z,99928.03
2022-08-26T06:33:56.478Z,99926.47
2022-08-26T06:39:01.457Z,99921.78
2022-08-26T06:44:08.053Z,99919.50
2022-08-26T06:49:11.528Z,99922.50
2022-08-26T06:54:14.283Z,99929.38
2022-08-26T06:59:18.390Z,99924.38
2022-08-26T07:04:23.149Z,99922.84
2022-08-26T07:09:30.299Z,99910.03
2022-08-26T07:14:35.344Z,99910.31
2022-08-26T07:19:38.159Z,99919.53
2022-08-26T07:24:42.366Z,99917.25
2022-08-26T07:29:46.660Z,99915.25
2022-08-26T07:34:50.329Z,99910.97
2022-08-26T07:39:53.085Z,99915.97
2022-08-26T07:44:57.271Z,99915.28
2022-08-26T07:50:00.472Z,99928.41
2022-08-26T07:55:04.411Z,99916.59
2022-08-26T08:00:13.258Z,99913.59
2022-08-26T08:05:20.076Z,99915.03
2022-08-26T08:10:27.004Z,99912.00
2022-08-26T08:15:33.137Z,99915.31
2022-08-26T08:20:38.317Z,99915.88
2022-08-26T08:25:41.308Z,99908.59
2022-08-26T08:30:45.562Z,99912.72
2022-08-26T08:35:48.448Z,99903.03
2022-08-26T08:40:52.272Z,99899.22
2022-08-26T08:46:01.695Z,99890.38
2022-08-26T08:51:23.177Z,99895.66
2022-08-26T08:56:31.947Z,99884.81
2022-08-26T09:02:02.215Z,99885.94
2022-08-26T09:07:09.886Z,99882.47
2022-08-26T09:12:20.349Z,99879.66
2022-08-26T09:17:37.391Z,99872.06
2022-08-26T09:22:41.193Z,99866.50
2022-08-26T09:27:50.285Z,99857.34
2022-08-26T09:33:01.986Z,99856.94
2022-08-26T09:38:22.821Z,99849.50
2022-08-26T09:43:30.436Z,99846.06
2022-08-26T09:48:37.080Z,99847.34
2022-08-26T09:53:53.792Z,99839.47
2022-08-26T09:59:12.287Z,99828.63
2022-08-26T10:04:24.759Z,99828.47
2022-08-26T10:09:31.666Z,99817.31
2022-08-26T10:19:57.593Z,99790.28
2022-08-26T10:25:03.929Z,99778.88
2022-08-26T10:30:11.040Z,99772.28
2022-08-26T10:35:17.277Z,99764.53
2022-08-26T10:40:26.314Z,99758.81
2022-08-26T10:45:33.344Z,99740.38
2022-08-26T10:50:39.849Z,99729.34
2022-08-26T10:55:51.921Z,99732.75
2022-08-26T11:01:22.698Z,99725.94
2022-08-26T11:06:29.762Z,99724.31
2022-08-26T11:11:51.382Z,99714.88
2022-08-26T11:16:56.909Z,99713.84
2022-08-26T11:22:06.872Z,99713.84
2022-08-26T11:27:12.848Z,99717.66
2022-08-26T11:32:26.724Z,99734.34
2022-08-26T11:37:37.497Z,99733.56
2022-08-26T11:42:49.104Z,99734.66
2022-08-26T11:47:52.100Z,99758.47
2022-08-26T11:53:01.832Z,99761.47
2022-08-26T11:58:07.367Z,99761.00
2022-08-26T12:03:18.968Z,99756.94
2022-08-26T12:08:28.374Z,99755.44
2022-08-26T12:13:31.178Z,99734.28
2022-08-26T12:18:37.088Z,99743.09
2022-08-26T12:23:47.320Z,99734.31
2022-08-26T12:28:53.899Z,99719.56
2022-08-26T12:33:59.614Z,99710.97
2022-08-26T12:39:12.502Z,99706.38
2022-08-26T12:44:36.536Z,99696.56
2022-08-26T12:49:40.808Z,99709.00
2022-08-26T12:55:02.698Z,99711.06
2022-08-26T13:00:33.093Z,99712.81
2022-08-26T13:05:37.849Z,99719.81
2022-08-26T13:10:44.706Z,99716.25
2022-08-26T13:15:47.435Z,99718.09
2022-08-26T13:20:50.204Z,99720.13
2022-08-26T13:25:54.370Z,99719.19
2022-08-26T13:30:57.298Z,99717.22
2022-08-26T13:36:00.971Z,99733.88
2022-08-26T13:41:05.891Z,99720.81
2022-08-26T13:46:08.765Z,99716.06
2022-08-26T13:51:12.035Z,99712.50
2022-08-26T13:56:16.525Z,99722.09
2022-08-26T14:01:19.451Z,99718.19
2022-08-26T14:06:22.798Z,99724.16
2022-08-26T14:11:27.653Z,99718.19
2022-08-26T14:16:34.394Z,99729.44
2022-08-26T14:21:39.546Z,99731.88
2022-08-26T14:26:43.635Z,99726.59
2022-08-26T14:31:46.700Z,99710.78
2022-08-26T14:36:49.572Z,99700.34
2022-08-26T14:41:57.458Z,99704.03
2022-08-26T14:47:03.027Z,99689.75
2022-08-26T14:52:05.953Z,99680.22
2022-08-26T14:57:12.951Z,99670.53
2022-08-26T15:02:27.717Z,99669.19
2022-08-26T15:07:36.369Z,99645.44
2022-08-26T15:12:41.269Z,99634.72
2022-08-26T15:17:44.604Z,99625.72
2022-08-26T15:22:48.169Z,99611.44
2022-08-26T15:27:52.465Z,99604.44
2022-08-26T15:32:55.305Z,99608.91
2022-08-26T15:37:58.065Z,99597.00
2022-08-26T15:43:18.488Z,99602.81
2022-08-26T15:48:26.761Z,99603.47
2022-08-26T15:53:31.497Z,99618.81
2022-08-26T15:58:36.263Z,99623.25
2022-08-26T16:03:39.170Z,99621.84
2022-08-26T16:08:42.207Z,99625.78
2022-08-26T16:13:46.596Z,99638.53
2022-08-26T16:18:49.584Z,99645.00
2022-08-26T16:23:52.961Z,99666.13
2022-08-26T16:28:57.184Z,99656.94
2022-08-26T16:33:59.959Z,99660.00
2022-08-26T16:39:03.518Z,99662.91
2022-08-26T16:44:08.757Z,99663.41
2022-08-26T16:49:11.472Z,99660.69
2022-08-26T16:54:14.560Z,99664.75
2022-08-26T16:59:18.806Z,99665.59
2022-08-26T17:04:21.941Z,99662.19
2022-08-26T17:09:25.483Z,99659.31
2022-08-26T17:14:29.797Z,99655.38
2022-08-26T17:19:34.550Z,99661.53
2022-08-26T17:24:49.644Z,99660.50
2022-08-26T17:29:53.968Z,99667.31
2022-08-26T17:34:56.606Z,99667.31
2022-08-26T17:39:59.397Z,99667.47
2022-08-26T17:45:03.651Z,99653.00
2022-08-26T17:50:10.181Z,99656.25
2022-08-26T17:55:16.832Z,99648.75
2022-08-26T18:00:26.261Z,99634.47
2022-08-26T18:05:29.868Z,99635.84
2022-08-26T18:10:32.549Z,99633.13
2022-08-26T18:15:39.438Z,99632.94
2022-08-26T18:20:44.383Z,99632.09
2022-08-26T18:25:47.047Z,99639.59
2022-08-26T18:30:51.605Z,99636.16
2022-08-26T18:35:54.347Z,99640.59
2022-08-26T18:40:57.077Z,99639.06
2022-08-26T18:46:05.495Z,99657.13
2022-08-26T18:51:12.516Z,99649.97
2022-08-26T18:56:18.155Z,99661.56
2022-08-26T19:01:27.157Z,99673.78
2022-08-26T19:06:32.815Z,99687.09
2022-08-26T19:11:37.478Z,99700.53
2022-08-26T19:16:48.912Z,99704.94
2022-08-26T19:21:51.810Z,99708.88
2022-08-26T19:26:58.293Z,99718.56
2022-08-26T19:32:03.744Z,99719.94
2022-08-26T19:37:06.460Z,99711.94
2022-08-26T19:42:09.183Z,99705.63
2022-08-26T19:47:13.995Z,99705.63
2022-08-26T19:52:17.028Z,99699.50
2022-08-26T19:57:19.757Z,99704.78
2022-08-26T20:02:23.847Z,99704.28
2022-08-26T20:07:26.789Z,99707.00
2022-08-26T20:12:31.901Z,99710.56
2022-08-26T20:17:36.028Z,99714.84
2022-08-26T20:22:38.872Z,99712.13
2022-08-26T20:27:41.831Z,99708.34
2022-08-26T20:32:46.059Z,99695.94
2022-08-26T20:37:48.768Z,99696.91
2022-08-26T20:42:51.510Z,99690.13
2022-08-26T20:47:55.801Z,99694.03
2022-08-26T20:52:58.882Z,99707.66
2022-08-26T20:58:01.791Z,99701.34
2022-08-26T21:03:06.033Z,99708.16
2022-08-26T21:08:09.041Z,99710.34
2022-08-26T21:13:14.901Z,99711.72
2022-08-26T21:18:18.943Z,99721.78
2022-08-26T21:23:23.126Z,99718.56
2022-08-26T21:28:27.242Z,99724.69
2022-08-26T21:33:31.303Z,99719.06
2022-08-26T21:38:36.479Z,99725.16
2022-08-26T21:43:40.153Z,99728.31
2022-08-26T21:48:49.943Z,99732.78
2022-08-26T21:53:53.793Z,99721.72
2022-08-26T21:58:59.590Z,99721.31
2022-08-26T22:04:04.853Z,99730.38
2022-08-26T22:09:07.837Z,99723.59
2022-08-26T22:14:11.425Z,99723.97
2022-08-26T22:19:17.363Z,99714.09
2022-08-26T22:24:22.805Z,99704.06
2022-08-26T22:29:25.760Z,99717.47
2022-08-26T22:34:30.954Z,99719.00
2022-08-26T22:39:33.677Z,99721.22
2022-08-26T22:44:37.575Z,99715.78
2022-08-26T22:49:41.691Z,99705.88
2022-08-26T22:54:45.262Z,99708.13
2022-08-26T22:59:48.249Z,99708.28
2022-08-26T23:04:52.342Z,99715.56
2022-08-26T23:09:55.079Z,99703.13
2022-08-26T23:14:57.926Z,99698.88
2022-08-26T23:20:02.254Z,99687.28
2022-08-26T23:25:08.343Z,99697.31
2022-08-26T23:30:16.759Z,99687.09
2022-08-26T23:35:21.874Z,99690.13
2022-08-26T23:40:28.435Z,99688.63
2022-08-26T23:45:32.654Z,99678.22
2022-08-26T23:50:54.533Z,99686.88
2022-08-26T23:55:57.283Z,99678.19
